createdAt,value
2023-02-06T00:01:42.713Z,-8.82
2023-02-06T00:04:11.584Z,-8.84
2023-02-06T00:06:39.585Z,-8.85
2023-02-06T00:09:08.095Z,-8.85
2023-02-06T00:11:36.274Z,-8.87
2023-02-06T00:14:04.427Z,-8.84
2023-02-06T00:16:34.511Z,-8.81
2023-02-06T00:19:03.105Z,-8.76
2023-02-06T00:21:31.645Z,-8.73
2023-02-06T00:24:01.570Z,-8.69
2023-02-06T00:26:31.363Z,-8.64
2023-02-06T00:28:59.652Z,-8.60
2023-02-06T00:31:27.687Z,-8.56
2023-02-06T00:33:55.760Z,-8.56
2023-02-06T00:36:23.779Z,-8.54
2023-02-06T00:38:53.143Z,-8.50
2023-02-06T00:41:21.235Z,-8.49
2023-02-06T00:43:49.314Z,-8.49
2023-02-06T00:46:17.472Z,-8.50
2023-02-06T00:48:45.449Z,-8.53
2023-02-06T00:51:13.608Z,-8.54
2023-02-06T00:53:41.565Z,-8.55
2023-02-06T00:56:10.014Z,-8.58
2023-02-06T00:58:38.225Z,-8.61
2023-02-06T01:01:06.357Z,-8.62
2023-02-06T01:03:34.623Z,-8.63
2023-02-06T01:06:02.828Z,-8.64
2023-02-06T01:08:30.824Z,-8.67
2023-02-06T01:11:00.800Z,-8.66
2023-02-06T01:13:29.169Z,-8.65
2023-02-06T01:15:57.298Z,-8.67
2023-02-06T01:18:25.389Z,-8.68
2023-02-06T01:20:53.338Z,-8.70
2023-02-06T01:23:21.422Z,-8.79
2023-02-06T01:25:49.523Z,-8.78
2023-02-06T01:28:17.691Z,-8.82
2023-02-06T01:30:45.701Z,-8.84
2023-02-06T01:33:13.673Z,-8.86
2023-02-06T01:35:41.673Z,-8.87
2023-02-06T01:38:09.833Z,-8.91
2023-02-06T01:40:38.895Z,-8.93
2023-02-06T01:43:16.965Z,-8.98
2023-02-06T01:45:47.193Z,-9.02
2023-02-06T01:48:19.658Z,-9.06
2023-02-06T01:50:54.270Z,-9.06
2023-02-06T01:53:24.345Z,-9.11
2023-02-06T01:55:56.606Z,-9.10
2023-02-06T01:58:30.484Z,-9.12
2023-02-06T02:01:00.749Z,-9.09
2023-02-06T02:03:32.041Z,-9.10
2023-02-06T02:06:05.970Z,-9.07
2023-02-06T02:08:53.490Z,-9.03
2023-02-06T02:11:27.470Z,-8.99
2023-02-06T02:13:56.862Z,-8.97
2023-02-06T02:16:47.603Z,-8.94
2023-02-06T02:19:50.996Z,-8.90
2023-02-06T02:22:53.147Z,-8.87
2023-02-06T02:26:00.011Z,-8.88
2023-02-06T02:28:55.523Z,-8.88
2023-02-06T02:31:30.193Z,-8.92
2023-02-06T02:34:08.963Z,-8.93
2023-02-06T02:37:00.683Z,-8.93
2023-02-06T02:39:45.030Z,-8.92
2023-02-06T02:42:36.557Z,-8.94
2023-02-06T02:45:12.286Z,-8.94
2023-02-06T02:47:54.903Z,-8.98
2023-02-06T02:50:23.312Z,-8.98
2023-02-06T02:52:52.335Z,-9.00
2023-02-06T02:55:23.740Z,-8.97
2023-02-06T02:58:04.003Z,-8.99
2023-02-06T03:00:36.910Z,-8.97
2023-02-06T03:03:08.332Z,-8.94
2023-02-06T03:05:45.007Z,-8.93
2023-02-06T03:08:19.618Z,-8.90
2023-02-06T03:11:15.050Z,-8.88
2023-02-06T03:14:10.320Z,-8.88
2023-02-06T03:16:49.674Z,-8.88
2023-02-06T03:19:23.302Z,-8.91
2023-02-06T03:21:51.461Z,-8.93
2023-02-06T03:24:24.710Z,-8.95
2023-02-06T03:27:00.436Z,-8.97
2023-02-06T03:29:31.527Z,-9.00
2023-02-06T03:32:15.319Z,-9.01
2023-02-06T03:35:13.670Z,-9.02
2023-02-06T03:37:42.043Z,-9.02
2023-02-06T03:40:11.221Z,-9.01
2023-02-06T03:42:45.735Z,-8.98
2023-02-06T03:45:21.763Z,-8.98
2023-02-06T03:47:52.282Z,-9.04
2023-02-06T03:50:26.572Z,-9.09
2023-02-06T03:52:59.439Z,-9.07
2023-02-06T03:55:28.950Z,-9.07
2023-02-06T03:58:07.764Z,-9.06
2023-02-06T04:00:38.225Z,-9.06
2023-02-06T04:03:08.615Z,-9.08
2023-02-06T04:05:38.624Z,-9.08
2023-02-06T04:08:07.478Z,-9.06
2023-02-06T04:10:37.964Z,-9.02
2023-02-06T04:13:05.980Z,-8.99
2023-02-06T04:15:34.537Z,-9.00
2023-02-06T04:18:03.476Z,-8.97
2023-02-06T04:20:32.610Z,-8.99
2023-02-06T04:23:00.834Z,-8.97
2023-02-06T04:25:28.882Z,-8.96
2023-02-06T04:27:57.006Z,-8.91
2023-02-06T04:30:25.247Z,-8.88
2023-02-06T04:32:53.379Z,-8.89
2023-02-06T04:35:21.504Z,-8.81
2023-02-06T04:37:49.512Z,-8.78
2023-02-06T04:40:18.219Z,-8.79
2023-02-06T04:42:46.864Z,-8.74
2023-02-06T04:45:15.086Z,-8.75
2023-02-06T04:47:43.113Z,-8.73
2023-02-06T04:50:12.337Z,-8.70
2023-02-06T04:52:40.454Z,-8.67
2023-02-06T04:55:08.894Z,-8.64
2023-02-06T04:57:37.644Z,-8.58
2023-02-06T05:00:06.950Z,-8.54
2023-02-06T05:02:39.574Z,-8.54
2023-02-06T05:05:09.323Z,-8.56
2023-02-06T05:07:38.801Z,-8.56
2023-02-06T05:10:09.002Z,-8.51
2023-02-06T05:12:38.093Z,-8.50
2023-02-06T05:15:06.765Z,-8.45
2023-02-06T05:17:34.926Z,-8.47
2023-02-06T05:20:03.284Z,-8.46
2023-02-06T05:22:31.286Z,-8.38
2023-02-06T05:24:59.289Z,-8.38
2023-02-06T05:27:27.531Z,-8.36
2023-02-06T05:29:56.738Z,-8.28
2023-02-06T05:32:24.988Z,-8.25
2023-02-06T05:34:52.995Z,-8.27
2023-02-06T05:37:21.019Z,-8.25
2023-02-06T05:39:49.536Z,-8.24
2023-02-06T05:42:17.491Z,-8.20
2023-02-06T05:44:45.690Z,-8.22
2023-02-06T05:47:14.140Z,-8.20
2023-02-06T05:49:44.190Z,-8.16
2023-02-06T05:52:14.789Z,-8.18
2023-02-06T05:54:42.876Z,-8.10
2023-02-06T05:57:11.511Z,-8.06
2023-02-06T05:59:39.471Z,-8.02
2023-02-06T06:02:07.965Z,-7.99
2023-02-06T06:04:37.995Z,-8.00
2023-02-06T06:07:06.042Z,-7.99
2023-02-06T06:09:34.473Z,-7.94
2023-02-06T06:12:02.437Z,-7.90
2023-02-06T06:14:30.410Z,-7.86
2023-02-06T06:16:59.792Z,-7.84
2023-02-06T06:19:27.804Z,-7.80
2023-02-06T06:21:58.181Z,-7.78
2023-02-06T06:24:26.894Z,-7.79
2023-02-06T06:26:54.871Z,-7.78
2023-02-06T06:29:23.022Z,-7.80
2023-02-06T06:31:51.187Z,-7.76
2023-02-06T06:34:19.384Z,-7.72
2023-02-06T06:36:47.637Z,-7.63
2023-02-06T06:39:15.951Z,-7.59
2023-02-06T06:41:47.360Z,-7.54
2023-02-06T06:44:15.415Z,-7.50
2023-02-06T06:46:43.495Z,-7.49
2023-02-06T06:49:12.103Z,-7.51
2023-02-06T06:51:40.210Z,-7.50
2023-02-06T06:54:08.243Z,-7.45
2023-02-06T06:56:37.606Z,-7.38
2023-02-06T06:59:06.268Z,-7.31
2023-02-06T07:01:34.575Z,-7.24
2023-02-06T07:04:03.827Z,-7.22
2023-02-06T07:06:32.044Z,-7.17
2023-02-06T07:09:00.114Z,-7.16
2023-02-06T07:11:28.293Z,-7.12
2023-02-06T07:13:56.407Z,-7.11
2023-02-06T07:16:25.702Z,-7.03
2023-02-06T07:18:55.748Z,-6.99
2023-02-06T07:21:31.779Z,-6.89
2023-02-06T07:23:59.771Z,-6.84
2023-02-06T07:26:27.792Z,-6.79
2023-02-06T07:28:56.940Z,-6.67
2023-02-06T07:31:25.693Z,-6.61
2023-02-06T07:33:57.609Z,-6.58
2023-02-06T07:36:25.927Z,-6.51
2023-02-06T07:38:54.073Z,-6.54
2023-02-06T07:41:22.180Z,-6.48
2023-02-06T07:43:51.866Z,-6.46
2023-02-06T07:46:20.427Z,-6.41
2023-02-06T07:48:50.101Z,-6.38
2023-02-06T07:51:18.018Z,-6.32
2023-02-06T07:53:46.218Z,-6.27
2023-02-06T07:56:19.384Z,-6.21
2023-02-06T07:58:53.345Z,-6.17
2023-02-06T08:01:22.760Z,-6.07
2023-02-06T08:03:53.514Z,-6.00
2023-02-06T08:06:24.427Z,-5.89
2023-02-06T08:08:56.244Z,-5.85
2023-02-06T08:11:28.088Z,-5.77
2023-02-06T08:13:56.848Z,-5.66
2023-02-06T08:16:35.034Z,-5.62
2023-02-06T08:19:03.163Z,-5.58
2023-02-06T08:21:31.301Z,-5.58
2023-02-06T08:24:00.952Z,-5.59
2023-02-06T08:26:29.909Z,-5.58
2023-02-06T08:29:03.334Z,-5.59
2023-02-06T08:31:35.401Z,-5.55
2023-02-06T08:34:07.720Z,-5.46
2023-02-06T08:36:36.766Z,-5.43
2023-02-06T08:39:05.983Z,-5.38
2023-02-06T08:41:37.345Z,-5.33
2023-02-06T08:44:12.162Z,-5.28
2023-02-06T08:46:41.120Z,-5.21
2023-02-06T08:49:15.307Z,-5.25
2023-02-06T08:51:43.808Z,-5.27
2023-02-06T08:54:19.376Z,-5.22
2023-02-06T08:56:49.191Z,-5.19
2023-02-06T08:59:19.511Z,-5.11
2023-02-06T09:01:49.300Z,-5.06
2023-02-06T09:04:19.360Z,-4.99
2023-02-06T09:06:52.569Z,-4.84
2023-02-06T09:09:22.169Z,-4.75
2023-02-06T09:11:50.411Z,-4.68
2023-02-06T09:14:19.446Z,-4.61
2023-02-06T09:16:48.568Z,-4.63
2023-02-06T09:19:17.175Z,-4.63
2023-02-06T09:21:46.816Z,-4.58
2023-02-06T09:24:15.381Z,-4.55
2023-02-06T09:26:58.930Z,-4.50
2023-02-06T09:29:29.716Z,-4.43
2023-02-06T09:31:59.935Z,-4.41
2023-02-06T09:34:29.268Z,-4.39
2023-02-06T09:36:57.997Z,-4.26
2023-02-06T09:39:27.223Z,-4.16
2023-02-06T09:42:11.516Z,-4.10
2023-02-06T09:44:44.493Z,-4.00
2023-02-06T09:47:31.847Z,-3.94
2023-02-06T09:50:10.339Z,-3.85
2023-02-06T09:53:16.323Z,-3.78
2023-02-06T09:55:49.535Z,-3.71
2023-02-06T09:58:53.831Z,-3.69
2023-02-06T10:01:53.703Z,-3.62
2023-02-06T10:04:40.971Z,-3.60
2023-02-06T10:07:17.693Z,-3.59
2023-02-06T10:10:21.568Z,-3.62
2023-02-06T10:13:24.374Z,-3.49
2023-02-06T10:15:59.714Z,-3.54
2023-02-06T10:18:47.572Z,-3.50
2023-02-06T10:21:21.661Z,-3.39
2023-02-06T10:24:01.643Z,-3.28
2023-02-06T10:26:30.007Z,-3.23
2023-02-06T10:29:01.248Z,-3.15
2023-02-06T10:31:41.345Z,-3.12
2023-02-06T10:34:20.787Z,-3.12
2023-02-06T10:37:24.931Z,-3.27
2023-02-06T10:40:02.866Z,-3.24
2023-02-06T10:42:55.622Z,-3.06
2023-02-06T10:45:33.067Z,-3.02
2023-02-06T10:48:33.081Z,-3.07
2023-02-06T10:51:32.749Z,-3.04
2023-02-06T10:54:05.142Z,-2.91
2023-02-06T10:56:42.606Z,-2.93
2023-02-06T10:59:24.790Z,-2.99
2023-02-06T11:02:12.073Z,-2.88
2023-02-06T11:05:01.197Z,-2.92
2023-02-06T11:07:42.750Z,-2.81
2023-02-06T11:10:24.073Z,-2.82
2023-02-06T11:13:21.661Z,-2.80
2023-02-06T11:16:07.436Z,-2.77
2023-02-06T11:18:39.344Z,-2.77
2023-02-06T11:21:13.300Z,-2.67
2023-02-06T11:23:42.571Z,-2.63
2023-02-06T11:26:19.807Z,-2.56
2023-02-06T11:28:49.208Z,-2.48
2023-02-06T11:31:20.636Z,-2.47
2023-02-06T11:33:51.968Z,-2.41
2023-02-06T11:36:33.194Z,-2.41
2023-02-06T11:39:22.137Z,-2.44
2023-02-06T11:42:01.700Z,-2.40
2023-02-06T11:44:38.256Z,-2.47
2023-02-06T11:47:33.171Z,-2.39
2023-02-06T11:50:13.651Z,-2.36
2023-02-06T11:52:46.929Z,-2.30
2023-02-06T11:55:34.353Z,-2.39
2023-02-06T11:58:11.870Z,-2.35
2023-02-06T12:00:44.236Z,-2.33
2023-02-06T12:03:36.296Z,-2.25
2023-02-06T12:06:13.289Z,-2.13
2023-02-06T12:08:54.054Z,-2.14
2023-02-06T12:11:40.343Z,-2.07
2023-02-06T12:14:17.167Z,-2.11
2023-02-06T12:16:47.602Z,-2.10
2023-02-06T12:19:20.018Z,-2.06
2023-02-06T12:22:02.367Z,-2.07
2023-02-06T12:24:42.419Z,-2.07
2023-02-06T12:27:35.630Z,-2.06
2023-02-06T12:30:27.123Z,-2.09
2023-02-06T12:33:10.698Z,-2.05
2023-02-06T12:35:48.030Z,-1.99
2023-02-06T12:38:31.574Z,-1.96
2023-02-06T12:41:02.703Z,-1.87
2023-02-06T12:43:34.598Z,-1.87
2023-02-06T12:46:14.522Z,-1.86
2023-02-06T12:48:56.926Z,-1.86
2023-02-06T12:52:04.850Z,-1.76
2023-02-06T12:54:59.640Z,-1.57
2023-02-06T12:57:31.385Z,-1.41
2023-02-06T13:00:15.278Z,-1.28
2023-02-06T13:03:17.339Z,-1.19
2023-02-06T13:05:49.419Z,-1.09
2023-02-06T13:08:22.068Z,-1.09
2023-02-06T13:11:03.276Z,-0.88
2023-02-06T13:13:31.491Z,-0.96
2023-02-06T13:16:03.784Z,-0.91
2023-02-06T13:18:39.916Z,-0.94
2023-02-06T13:21:25.108Z,-1.00
2023-02-06T13:24:03.318Z,-1.25
2023-02-06T13:27:03.079Z,-1.27
2023-02-06T13:29:53.855Z,-1.40
2023-02-06T13:32:23.053Z,-1.35
2023-02-06T13:34:54.410Z,-1.31
2023-02-06T13:37:41.376Z,-1.27
2023-02-06T13:40:35.359Z,-1.29
2023-02-06T13:43:26.289Z,-1.25
2023-02-06T13:46:02.593Z,-1.24
2023-02-06T13:48:56.343Z,-1.18
2023-02-06T13:52:01.374Z,-1.23
2023-02-06T13:54:53.685Z,-1.25
2023-02-06T13:57:32.405Z,-1.39
2023-02-06T14:00:22.494Z,-1.35
2023-02-06T14:02:55.725Z,-1.40
2023-02-06T14:05:41.222Z,-1.36
2023-02-06T14:08:12.856Z,-1.37
2023-02-06T14:11:40.608Z,-1.44
2023-02-06T14:14:34.830Z,-1.60
2023-02-06T14:17:29.419Z,-1.62
2023-02-06T14:20:18.749Z,-1.29
2023-02-06T14:22:46.756Z,0.19
2023-02-06T14:25:44.527Z,1.24
2023-02-06T14:28:18.675Z,1.82
2023-02-06T14:31:03.217Z,2.15
2023-02-06T14:34:03.835Z,2.50
2023-02-06T14:37:11.243Z,3.05
2023-02-06T14:39:41.907Z,3.39
2023-02-06T14:42:37.390Z,2.92
2023-02-06T14:45:33.738Z,3.12
2023-02-06T14:48:30.170Z,3.80
2023-02-06T14:50:59.649Z,4.17
2023-02-06T14:53:33.565Z,4.46
2023-02-06T14:56:18.469Z,4.20
2023-02-06T14:58:47.218Z,4.87
2023-02-06T15:01:18.218Z,4.95
2023-02-06T15:03:48.878Z,4.79
2023-02-06T15:06:32.512Z,4.75
2023-02-06T15:09:02.167Z,4.49
2023-02-06T15:11:34.755Z,4.20
2023-02-06T15:14:19.472Z,3.73
2023-02-06T15:16:50.268Z,3.31
2023-02-06T15:19:25.524Z,2.85
2023-02-06T15:22:14.536Z,2.95
2023-02-06T15:25:04.971Z,2.57
2023-02-06T15:27:38.398Z,1.98
2023-02-06T15:30:22.038Z,1.01
2023-02-06T15:32:53.092Z,0.25
2023-02-06T15:35:25.940Z,-0.34
2023-02-06T15:37:55.291Z,-0.73
2023-02-06T15:40:31.743Z,-1.00
2023-02-06T15:43:06.435Z,-1.34
2023-02-06T15:45:38.465Z,-1.70
2023-02-06T15:48:28.371Z,-1.94
2023-02-06T15:51:18.593Z,-2.29
2023-02-06T15:53:49.571Z,-2.46
2023-02-06T15:56:26.433Z,-2.70
2023-02-06T15:59:00.868Z,-2.54
2023-02-06T16:01:37.224Z,-2.53
2023-02-06T16:04:13.553Z,-2.48
2023-02-06T16:06:41.773Z,-2.57
2023-02-06T16:09:21.504Z,-2.59
2023-02-06T16:11:53.319Z,-2.66
2023-02-06T16:14:30.010Z,-2.67
2023-02-06T16:17:01.503Z,-2.71
2023-02-06T16:19:52.724Z,-2.66
2023-02-06T16:22:21.007Z,-2.73
2023-02-06T16:24:52.050Z,-2.81
2023-02-06T16:27:22.746Z,-2.84
2023-02-06T16:29:56.774Z,-2.96
2023-02-06T16:32:29.218Z,-3.10
2023-02-06T16:34:58.340Z,-3.01
2023-02-06T16:37:29.820Z,-3.09
2023-02-06T16:39:57.921Z,-3.28
2023-02-06T16:42:33.048Z,-3.30
2023-02-06T16:45:02.202Z,-3.38
2023-02-06T16:47:30.640Z,-3.45
2023-02-06T16:49:59.442Z,-3.59
2023-02-06T16:52:34.147Z,-3.72
2023-02-06T16:55:02.768Z,-3.91
2023-02-06T16:57:37.246Z,-4.12
2023-02-06T17:00:16.039Z,-4.27
2023-02-06T17:02:44.999Z,-4.42
2023-02-06T17:05:16.309Z,-4.52
2023-02-06T17:07:45.004Z,-4.62
2023-02-06T17:10:13.659Z,-4.69
2023-02-06T17:12:44.503Z,-4.75
2023-02-06T17:15:14.505Z,-4.79
2023-02-06T17:17:47.067Z,-4.81
2023-02-06T17:20:29.632Z,-4.85
2023-02-06T17:22:57.900Z,-4.88
2023-02-06T17:25:28.856Z,-4.93
2023-02-06T17:28:00.821Z,-4.97
2023-02-06T17:30:29.452Z,-5.06
2023-02-06T17:32:58.681Z,-5.13
2023-02-06T17:35:27.317Z,-5.20
2023-02-06T17:37:56.111Z,-5.28
2023-02-06T17:40:28.451Z,-5.37
2023-02-06T17:42:58.064Z,-5.39
2023-02-06T17:45:27.658Z,-5.46
2023-02-06T17:47:57.649Z,-5.50
2023-02-06T17:50:28.131Z,-5.56
2023-02-06T17:52:59.626Z,-5.64
2023-02-06T17:55:28.938Z,-5.69
2023-02-06T17:57:57.471Z,-5.76
2023-02-06T18:00:26.205Z,-5.85
2023-02-06T18:02:56.382Z,-5.89
2023-02-06T18:05:26.636Z,-5.93
2023-02-06T18:07:54.697Z,-5.99
2023-02-06T18:10:24.890Z,-5.99
2023-02-06T18:12:55.350Z,-6.01
2023-02-06T18:15:23.722Z,-6.03
2023-02-06T18:17:55.191Z,-6.04
2023-02-06T18:20:23.464Z,-6.09
2023-02-06T18:22:51.856Z,-6.14
2023-02-06T18:25:20.089Z,-6.20
2023-02-06T18:27:48.194Z,-6.23
2023-02-06T18:30:18.375Z,-6.27
2023-02-06T18:32:46.934Z,-6.30
2023-02-06T18:35:16.867Z,-6.32
2023-02-06T18:37:46.416Z,-6.33
2023-02-06T18:40:14.580Z,-6.35
2023-02-06T18:42:51.763Z,-6.36
2023-02-06T18:45:25.454Z,-6.41
2023-02-06T18:47:54.021Z,-6.45
2023-02-06T18:50:22.395Z,-6.53
2023-02-06T18:52:52.160Z,-6.56
2023-02-06T18:55:22.873Z,-6.60
2023-02-06T18:57:52.928Z,-6.63
2023-02-06T19:00:23.912Z,-6.67
2023-02-06T19:02:52.191Z,-6.71
2023-02-06T19:05:20.966Z,-6.74
2023-02-06T19:07:51.189Z,-6.75
2023-02-06T19:10:21.650Z,-6.80
2023-02-06T19:12:50.089Z,-6.85
2023-02-06T19:15:19.360Z,-6.90
2023-02-06T19:17:50.218Z,-6.98
2023-02-06T19:20:19.483Z,-7.00
2023-02-06T19:22:47.754Z,-7.02
2023-02-06T19:25:16.350Z,-7.03
2023-02-06T19:27:44.587Z,-7.06
2023-02-06T19:30:13.673Z,-7.07
2023-02-06T19:32:42.154Z,-7.13
2023-02-06T19:35:12.094Z,-7.12
2023-02-06T19:37:41.656Z,-7.16
2023-02-06T19:40:11.587Z,-7.19
2023-02-06T19:42:40.401Z,-7.23
2023-02-06T19:45:10.300Z,-7.27
2023-02-06T19:47:39.262Z,-7.29
2023-02-06T19:50:09.096Z,-7.34
2023-02-06T19:52:37.320Z,-7.33
2023-02-06T19:55:08.942Z,-7.34
2023-02-06T19:57:39.628Z,-7.36
2023-02-06T20:00:09.252Z,-7.33
2023-02-06T20:02:39.218Z,-7.32
2023-02-06T20:05:08.066Z,-7.31
2023-02-06T20:07:37.609Z,-7.32
2023-02-06T20:10:07.720Z,-7.35
2023-02-06T20:12:36.559Z,-7.34
2023-02-06T20:15:04.720Z,-7.38
2023-02-06T20:17:32.731Z,-7.41
2023-02-06T20:20:01.498Z,-7.45
2023-02-06T20:22:30.273Z,-7.47
2023-02-06T20:24:58.519Z,-7.50
2023-02-06T20:27:27.673Z,-7.52
2023-02-06T20:29:55.830Z,-7.52
2023-02-06T20:32:24.476Z,-7.54
2023-02-06T20:34:52.512Z,-7.56
2023-02-06T20:37:21.607Z,-7.59
2023-02-06T20:39:51.779Z,-7.62
2023-02-06T20:42:22.451Z,-7.65
2023-02-06T20:44:50.792Z,-7.68
2023-02-06T20:47:18.936Z,-7.73
2023-02-06T20:49:47.072Z,-7.74
2023-02-06T20:52:15.040Z,-7.78
2023-02-06T20:54:43.127Z,-7.80
2023-02-06T20:57:15.457Z,-7.85
2023-02-06T20:59:43.778Z,-7.87
2023-02-06T21:02:11.812Z,-7.94
2023-02-06T21:04:40.071Z,-7.93
2023-02-06T21:07:08.008Z,-7.95
2023-02-06T21:09:36.518Z,-7.99
2023-02-06T21:12:04.778Z,-8.04
2023-02-06T21:14:33.553Z,-8.07
2023-02-06T21:17:01.776Z,-8.11
2023-02-06T21:19:29.952Z,-8.15
2023-02-06T21:22:01.396Z,-8.18
2023-02-06T21:24:29.532Z,-8.23
2023-02-06T21:26:57.525Z,-8.26
2023-02-06T21:29:25.747Z,-8.28
2023-02-06T21:32:07.245Z,-8.30
2023-02-06T21:34:40.967Z,-8.35
2023-02-06T21:37:09.663Z,-8.39
2023-02-06T21:39:38.993Z,-8.42
2023-02-06T21:42:11.655Z,-8.47
2023-02-06T21:44:40.142Z,-8.51
2023-02-06T21:47:10.719Z,-8.54
2023-02-06T21:49:38.878Z,-8.56
2023-02-06T21:52:07.799Z,-8.60
2023-02-06T21:54:36.559Z,-8.62
2023-02-06T21:57:04.944Z,-8.73
2023-02-06T21:59:34.611Z,-8.72
2023-02-06T22:02:02.753Z,-8.74
2023-02-06T22:04:31.103Z,-8.75
2023-02-06T22:06:59.117Z,-8.77
2023-02-06T22:09:27.162Z,-8.80
2023-02-06T22:11:56.019Z,-8.84
2023-02-06T22:14:24.444Z,-8.89
2023-02-06T22:16:52.582Z,-8.93
2023-02-06T22:19:20.685Z,-8.91
2023-02-06T22:21:49.813Z,-8.94
2023-02-06T22:24:18.381Z,-9.00
2023-02-06T22:26:47.160Z,-9.03
2023-02-06T22:29:17.594Z,-9.05
2023-02-06T22:31:46.816Z,-9.06
2023-02-06T22:34:18.089Z,-9.08
2023-02-06T22:36:46.847Z,-9.09
2023-02-06T22:39:15.480Z,-9.09
2023-02-06T22:41:45.709Z,-9.12
2023-02-06T22:44:16.733Z,-9.16
2023-02-06T22:46:48.592Z,-9.19
2023-02-06T22:49:17.479Z,-9.20
2023-02-06T22:51:47.163Z,-9.23
2023-02-06T22:54:15.464Z,-9.27
2023-02-06T22:56:44.813Z,-9.28
2023-02-06T22:59:20.838Z,-9.36
2023-02-06T23:01:59.868Z,-9.37
2023-02-06T23:04:30.552Z,-9.42
2023-02-06T23:06:58.546Z,-9.43
2023-02-06T23:09:30.316Z,-9.46
2023-02-06T23:11:58.943Z,-9.48
2023-02-06T23:14:30.160Z,-9.50
2023-02-06T23:17:02.539Z,-9.54
2023-02-06T23:19:31.072Z,-9.57
2023-02-06T23:21:59.526Z,-9.61
2023-02-06T23:24:27.713Z,-9.66
2023-02-06T23:26:56.075Z,-9.67
2023-02-06T23:29:25.259Z,-9.69
2023-02-06T23:31:53.325Z,-9.71
2023-02-06T23:34:25.006Z,-9.71
2023-02-06T23:36:53.314Z,-9.74
2023-02-06T23:39:21.509Z,-9.77
2023-02-06T23:41:51.934Z,-9.79
2023-02-06T23:44:21.417Z,-9.84
2023-02-06T23:46:49.417Z,-9.89
2023-02-06T23:49:17.597Z,-9.93
2023-02-06T23:51:45.695Z,-9.97
2023-02-06T23:54:14.491Z,-9.96
2023-02-06T23:56:42.554Z,-10.00
2023-02-06T23:59:10.672Z,-10.02
